Rogersville, Missouri
Current Conditions -  °F | °C
As of 6:52 PM on Sunday 21 Dec 2014 (Local Time) from KSGF Reporting Station
Overcast Overcast  
Wind Chill: 34°   Ceiling: 6000
Heat Index: 41°   Visibility: 10mi
Dew Point: 35°   Wind: 13mph
Humidity: 79%   Direction: 140°SE
Pressure: 29.87"   Gusts: NA
Location:  37.12°N, 93.06°W
Report Text: KSGF 220052Z 14011KT 10SM OVC060 05/02 A2987 RMK AO2 SLP120 T00500017
Loading
Personal Weather Stations






























Interactive Weather Map New forecast layout! Learn more

10-Day Weather Forecast

Advertisements
Track Severe Weather on mobile